sensor_id;sensor_type;location;lat;lon;timestamp;temperature;humidity
28837;DHT22;50669;50.982;11.022;2022-11-20T00:01:12;-4.40;99.90
28837;DHT22;50669;50.982;11.022;2022-11-20T00:03:38;-4.50;99.90
28837;DHT22;50669;50.982;11.022;2022-11-20T00:06:08;-4.50;99.90
28837;DHT22;50669;50.982;11.022;2022-11-20T00:08:37;-4.50;99.90
28837;DHT22;50669;50.982;11.022;2022-11-20T00:11:08;-4.60;99.90
28837;DHT22;50669;50.982;11.022;2022-11-20T00:13:34;-4.60;99.90
28837;DHT22;50669;50.982;11.022;2022-11-20T00:16:01;-4.60;99.90
28837;DHT22;50669;50.982;11.022;2022-11-20T00:18:30;-4.60;99.90
28837;DHT22;50669;50.982;11.022;2022-11-20T00:21:10;-4.60;99.90
28837;DHT22;50669;50.982;11.022;2022-11-20T00:23:41;-4.70;99.90
28837;DHT22;50669;50.982;11.022;2022-11-20T00:26:09;-4.70;99.90
28837;DHT22;50669;50.982;11.022;2022-11-20T00:28:35;-4.70;99.90
28837;DHT22;50669;50.982;11.022;2022-11-20T00:31:12;-4.70;99.90
28837;DHT22;50669;50.982;11.022;2022-11-20T00:33:41;-4.80;99.90
28837;DHT22;50669;50.982;11.022;2022-11-20T00:36:13;-4.80;99.90
28837;DHT22;50669;50.982;11.022;2022-11-20T00:38:42;-4.80;99.90
28837;DHT22;50669;50.982;11.022;2022-11-20T00:41:12;-4.80;99.90
28837;DHT22;50669;50.982;11.022;2022-11-20T00:43:39;-4.80;99.90
28837;DHT22;50669;50.982;11.022;2022-11-20T00:46:07;-4.90;99.90
28837;DHT22;50669;50.982;11.022;2022-11-20T00:48:35;-4.90;99.90
28837;DHT22;50669;50.982;11.022;2022-11-20T00:51:01;-4.90;99.90
28837;DHT22;50669;50.982;11.022;2022-11-20T00:53:27;-4.90;99.90
28837;DHT22;50669;50.982;11.022;2022-11-20T00:56:05;-4.90;99.90
28837;DHT22;50669;50.982;11.022;2022-11-20T00:58:39;-5.00;99.90
28837;DHT22;50669;50.982;11.022;2022-11-20T01:01:16;-5.00;99.90
28837;DHT22;50669;50.982;11.022;2022-11-20T01:03:46;-5.00;99.90
28837;DHT22;50669;50.982;11.022;2022-11-20T01:06:27;-5.10;99.90
28837;DHT22;50669;50.982;11.022;2022-11-20T01:08:55;-5.10;99.90
28837;DHT22;50669;50.982;11.022;2022-11-20T01:11:24;-5.10;99.90
28837;DHT22;50669;50.982;11.022;2022-11-20T01:13:53;-5.10;99.90
28837;DHT22;50669;50.982;11.022;2022-11-20T01:16:36;-5.10;99.90
28837;DHT22;50669;50.982;11.022;2022-11-20T01:19:04;-5.10;99.90
28837;DHT22;50669;50.982;11.022;2022-11-20T01:21:33;-5.20;99.90
28837;DHT22;50669;50.982;11.022;2022-11-20T01:24:00;-5.20;99.90
28837;DHT22;50669;50.982;11.022;2022-11-20T01:26:28;-5.20;99.90
28837;DHT22;50669;50.982;11.022;2022-11-20T01:28:57;-5.20;99.90
28837;DHT22;50669;50.982;11.022;2022-11-20T01:31:35;-5.20;99.90
28837;DHT22;50669;50.982;11.022;2022-11-20T01:34:04;-5.20;99.90
28837;DHT22;50669;50.982;11.022;2022-11-20T01:36:33;-5.20;99.90
28837;DHT22;50669;50.982;11.022;2022-11-20T01:39:04;-5.30;99.90
28837;DHT22;50669;50.982;11.022;2022-11-20T01:41:33;-5.30;99.90
28837;DHT22;50669;50.982;11.022;2022-11-20T01:44:22;-5.30;99.90
28837;DHT22;50669;50.982;11.022;2022-11-20T01:46:58;-5.30;99.90
28837;DHT22;50669;50.982;11.022;2022-11-20T01:49:29;-5.30;99.90
28837;DHT22;50669;50.982;11.022;2022-11-20T01:52:05;-5.40;99.90
28837;DHT22;50669;50.982;11.022;2022-11-20T01:54:44;-5.40;99.90
28837;DHT22;50669;50.982;11.022;2022-11-20T01:57:16;-5.40;99.90
28837;DHT22;50669;50.982;11.022;2022-11-20T01:59:47;-5.40;99.90
28837;DHT22;50669;50.982;11.022;2022-11-20T02:02:17;-5.40;99.90
28837;DHT22;50669;50.982;11.022;2022-11-20T02:04:47;-5.40;99.90
28837;DHT22;50669;50.982;11.022;2022-11-20T02:07:17;-5.30;99.90
28837;DHT22;50669;50.982;11.022;2022-11-20T02:09:46;-5.30;99.90
28837;DHT22;50669;50.982;11.022;2022-11-20T02:12:12;-5.30;99.90
28837;DHT22;50669;50.982;11.022;2022-11-20T02:14:58;-5.30;99.90
28837;DHT22;50669;50.982;11.022;2022-11-20T02:17:24;-5.30;99.90
28837;DHT22;50669;50.982;11.022;2022-11-20T02:19:51;-5.30;99.90
28837;DHT22;50669;50.982;11.022;2022-11-20T02:22:28;-5.30;99.90
28837;DHT22;50669;50.982;11.022;2022-11-20T02:24:57;-5.30;99.90
28837;DHT22;50669;50.982;11.022;2022-11-20T02:27:25;-5.30;99.90
28837;DHT22;50669;50.982;11.022;2022-11-20T02:29:56;-5.30;99.90
28837;DHT22;50669;50.982;11.022;2022-11-20T02:32:31;-5.30;99.90
28837;DHT22;50669;50.982;11.022;2022-11-20T02:37:48;-5.20;99.90
28837;DHT22;50669;50.982;11.022;2022-11-20T02:40:20;-5.20;99.90
28837;DHT22;50669;50.982;11.022;2022-11-20T02:42:46;-5.10;99.90
28837;DHT22;50669;50.982;11.022;2022-11-20T02:45:11;-5.10;99.90
28837;DHT22;50669;50.982;11.022;2022-11-20T02:47:41;-5.10;99.90
28837;DHT22;50669;50.982;11.022;2022-11-20T02:50:10;-5.00;99.90
28837;DHT22;50669;50.982;11.022;2022-11-20T02:52:38;-5.10;99.90
28837;DHT22;50669;50.982;11.022;2022-11-20T02:55:06;-5.10;99.90
28837;DHT22;50669;50.982;11.022;2022-11-20T02:57:32;-5.20;99.90
28837;DHT22;50669;50.982;11.022;2022-11-20T03:00:01;-5.20;99.90
28837;DHT22;50669;50.982;11.022;2022-11-20T03:02:30;-5.20;99.90
28837;DHT22;50669;50.982;11.022;2022-11-20T03:04:58;-5.20;99.90
28837;DHT22;50669;50.982;11.022;2022-11-20T03:07:24;-5.20;99.90
28837;DHT22;50669;50.982;11.022;2022-11-20T03:09:49;-5.30;99.90
28837;DHT22;50669;50.982;11.022;2022-11-20T03:12:15;-5.30;99.90
28837;DHT22;50669;50.982;11.022;2022-11-20T03:14:41;-5.30;99.90
28837;DHT22;50669;50.982;11.022;2022-11-20T03:17:06;-5.30;99.90
28837;DHT22;50669;50.982;11.022;2022-11-20T03:19:37;-5.30;99.90
28837;DHT22;50669;50.982;11.022;2022-11-20T03:22:05;-5.40;99.90
28837;DHT22;50669;50.982;11.022;2022-11-20T03:24:30;-5.40;99.90
28837;DHT22;50669;50.982;11.022;2022-11-20T03:26:56;-5.40;99.90
28837;DHT22;50669;50.982;11.022;2022-11-20T03:29:22;-5.30;99.90
28837;DHT22;50669;50.982;11.022;2022-11-20T03:31:50;-5.30;99.90
28837;DHT22;50669;50.982;11.022;2022-11-20T03:34:15;-5.30;99.90
28837;DHT22;50669;50.982;11.022;2022-11-20T03:36:44;-5.20;99.90
28837;DHT22;50669;50.982;11.022;2022-11-20T03:39:12;-5.20;99.90
28837;DHT22;50669;50.982;11.022;2022-11-20T03:41:40;-5.10;99.90
28837;DHT22;50669;50.982;11.022;2022-11-20T03:44:08;-5.20;99.90
28837;DHT22;50669;50.982;11.022;2022-11-20T03:46:39;-5.20;99.90
28837;DHT22;50669;50.982;11.022;2022-11-20T03:49:05;-5.30;99.90
28837;DHT22;50669;50.982;11.022;2022-11-20T03:51:32;-5.20;99.90
28837;DHT22;50669;50.982;11.022;2022-11-20T03:54:01;-5.20;99.90
28837;DHT22;50669;50.982;11.022;2022-11-20T03:56:29;-5.20;99.90
28837;DHT22;50669;50.982;11.022;2022-11-20T03:58:55;-5.20;99.90
28837;DHT22;50669;50.982;11.022;2022-11-20T04:01:30;-5.30;99.90
28837;DHT22;50669;50.982;11.022;2022-11-20T04:03:57;-5.30;99.90
28837;DHT22;50669;50.982;11.022;2022-11-20T04:06:28;-5.30;99.90
28837;DHT22;50669;50.982;11.022;2022-11-20T04:08:55;-5.40;99.90
28837;DHT22;50669;50.982;11.022;2022-11-20T04:11:32;-5.40;99.90
28837;DHT22;50669;50.982;11.022;2022-11-20T04:14:03;-5.40;99.90
28837;DHT22;50669;50.982;11.022;2022-11-20T04:16:34;-5.50;99.90
28837;DHT22;50669;50.982;11.022;2022-11-20T04:19:02;-5.40;99.90
28837;DHT22;50669;50.982;11.022;2022-11-20T04:21:29;-5.50;99.90
28837;DHT22;50669;50.982;11.022;2022-11-20T04:23:55;-5.50;99.90
28837;DHT22;50669;50.982;11.022;2022-11-20T04:26:23;-5.50;99.90
28837;DHT22;50669;50.982;11.022;2022-11-20T04:28:49;-5.50;99.90
28837;DHT22;50669;50.982;11.022;2022-11-20T04:31:18;-5.50;99.90
28837;DHT22;50669;50.982;11.022;2022-11-20T04:33:44;-5.50;99.90
28837;DHT22;50669;50.982;11.022;2022-11-20T04:36:14;-5.50;99.90
28837;DHT22;50669;50.982;11.022;2022-11-20T04:38:43;-5.50;99.90
28837;DHT22;50669;50.982;11.022;2022-11-20T04:41:16;-5.60;99.90
28837;DHT22;50669;50.982;11.022;2022-11-20T04:43:46;-5.70;99.90
28837;DHT22;50669;50.982;11.022;2022-11-20T04:46:13;-5.70;99.90
28837;DHT22;50669;50.982;11.022;2022-11-20T04:48:38;-5.70;99.90
28837;DHT22;50669;50.982;11.022;2022-11-20T04:51:07;-5.70;99.90
28837;DHT22;50669;50.982;11.022;2022-11-20T04:53:32;-5.70;99.90
28837;DHT22;50669;50.982;11.022;2022-11-20T04:56:02;-5.70;99.90
28837;DHT22;50669;50.982;11.022;2022-11-20T04:58:31;-5.70;99.90
28837;DHT22;50669;50.982;11.022;2022-11-20T05:01:06;-5.60;99.90
28837;DHT22;50669;50.982;11.022;2022-11-20T05:03:32;-5.50;99.90
28837;DHT22;50669;50.982;11.022;2022-11-20T05:06:04;-5.50;99.90
28837;DHT22;50669;50.982;11.022;2022-11-20T05:08:31;-5.50;99.90
28837;DHT22;50669;50.982;11.022;2022-11-20T05:11:02;-5.50;99.90
28837;DHT22;50669;50.982;11.022;2022-11-20T05:13:31;-5.50;99.90
28837;DHT22;50669;50.982;11.022;2022-11-20T05:16:04;-5.50;99.90
28837;DHT22;50669;50.982;11.022;2022-11-20T05:18:36;-5.50;99.90
28837;DHT22;50669;50.982;11.022;2022-11-20T05:21:02;-5.30;99.90
28837;DHT22;50669;50.982;11.022;2022-11-20T05:23:30;-5.30;99.90
28837;DHT22;50669;50.982;11.022;2022-11-20T05:25:56;-5.30;99.90
28837;DHT22;50669;50.982;11.022;2022-11-20T05:28:23;-5.20;99.90
28837;DHT22;50669;50.982;11.022;2022-11-20T05:30:49;-5.00;99.90
28837;DHT22;50669;50.982;11.022;2022-11-20T05:33:17;-4.90;99.90
28837;DHT22;50669;50.982;11.022;2022-11-20T05:35:43;-4.80;99.90
28837;DHT22;50669;50.982;11.022;2022-11-20T05:38:10;-4.70;99.90
28837;DHT22;50669;50.982;11.022;2022-11-20T05:40:40;-4.70;99.90
28837;DHT22;50669;50.982;11.022;2022-11-20T05:43:06;-4.70;99.90
28837;DHT22;50669;50.982;11.022;2022-11-20T05:45:36;-4.60;99.90
28837;DHT22;50669;50.982;11.022;2022-11-20T05:48:04;-4.60;99.90
28837;DHT22;50669;50.982;11.022;2022-11-20T05:50:30;-4.50;99.90
28837;DHT22;50669;50.982;11.022;2022-11-20T05:52:58;-4.40;99.90
28837;DHT22;50669;50.982;11.022;2022-11-20T05:55:27;-4.30;99.90
28837;DHT22;50669;50.982;11.022;2022-11-20T05:57:58;-4.30;99.90
28837;DHT22;50669;50.982;11.022;2022-11-20T06:00:23;-4.30;99.90
28837;DHT22;50669;50.982;11.022;2022-11-20T06:02:49;-4.30;99.90
28837;DHT22;50669;50.982;11.022;2022-11-20T06:05:15;-4.30;99.90
28837;DHT22;50669;50.982;11.022;2022-11-20T06:07:40;-4.40;99.90
28837;DHT22;50669;50.982;11.022;2022-11-20T06:10:06;-4.40;99.90
28837;DHT22;50669;50.982;11.022;2022-11-20T06:12:34;-4.50;99.90
28837;DHT22;50669;50.982;11.022;2022-11-20T06:15:00;-4.40;99.90
28837;DHT22;50669;50.982;11.022;2022-11-20T06:17:28;-4.30;99.90
28837;DHT22;50669;50.982;11.022;2022-11-20T06:19:56;-4.30;99.90
28837;DHT22;50669;50.982;11.022;2022-11-20T06:22:24;-4.30;99.90
28837;DHT22;50669;50.982;11.022;2022-11-20T06:24:50;-4.30;99.90
28837;DHT22;50669;50.982;11.022;2022-11-20T06:27:20;-4.40;99.90
28837;DHT22;50669;50.982;11.022;2022-11-20T06:29:47;-4.40;99.90
28837;DHT22;50669;50.982;11.022;2022-11-20T06:32:13;-4.40;99.90
28837;DHT22;50669;50.982;11.022;2022-11-20T06:34:39;-4.40;99.90
28837;DHT22;50669;50.982;11.022;2022-11-20T06:37:04;-4.30;99.90
28837;DHT22;50669;50.982;11.022;2022-11-20T06:39:30;-4.30;99.90
28837;DHT22;50669;50.982;11.022;2022-11-20T06:41:55;-4.20;99.90
28837;DHT22;50669;50.982;11.022;2022-11-20T06:44:21;-4.10;99.90
28837;DHT22;50669;50.982;11.022;2022-11-20T06:46:47;-4.00;99.90
28837;DHT22;50669;50.982;11.022;2022-11-20T06:49:12;-3.90;99.90
28837;DHT22;50669;50.982;11.022;2022-11-20T06:51:38;-4.00;99.90
28837;DHT22;50669;50.982;11.022;2022-11-20T06:54:06;-4.10;99.90
28837;DHT22;50669;50.982;11.022;2022-11-20T06:56:31;-4.00;99.90
28837;DHT22;50669;50.982;11.022;2022-11-20T06:58:57;-3.90;99.90
28837;DHT22;50669;50.982;11.022;2022-11-20T07:01:22;-3.80;99.90
28837;DHT22;50669;50.982;11.022;2022-11-20T07:03:51;-3.70;99.90
28837;DHT22;50669;50.982;11.022;2022-11-20T07:06:19;-3.60;99.90
28837;DHT22;50669;50.982;11.022;2022-11-20T07:08:44;-3.60;99.90
28837;DHT22;50669;50.982;11.022;2022-11-20T07:11:15;-3.70;99.90
28837;DHT22;50669;50.982;11.022;2022-11-20T07:13:41;-3.60;99.90
28837;DHT22;50669;50.982;11.022;2022-11-20T07:16:07;-3.60;99.90
28837;DHT22;50669;50.982;11.022;2022-11-20T07:18:38;-3.60;99.90
28837;DHT22;50669;50.982;11.022;2022-11-20T07:21:09;-3.50;99.90
28837;DHT22;50669;50.982;11.022;2022-11-20T07:23:35;-3.50;99.90
28837;DHT22;50669;50.982;11.022;2022-11-20T07:26:06;-3.50;99.90
28837;DHT22;50669;50.982;11.022;2022-11-20T07:28:32;-3.50;99.90
28837;DHT22;50669;50.982;11.022;2022-11-20T07:31:02;-3.50;99.90
28837;DHT22;50669;50.982;11.022;2022-11-20T07:33:28;-3.40;99.90
28837;DHT22;50669;50.982;11.022;2022-11-20T07:35:54;-3.40;99.90
28837;DHT22;50669;50.982;11.022;2022-11-20T07:38:22;-3.30;99.90
28837;DHT22;50669;50.982;11.022;2022-11-20T07:40:48;-3.30;99.90
28837;DHT22;50669;50.982;11.022;2022-11-20T07:43:14;-3.30;99.90
28837;DHT22;50669;50.982;11.022;2022-11-20T07:45:42;-3.40;99.90
28837;DHT22;50669;50.982;11.022;2022-11-20T07:48:10;-3.40;99.90
28837;DHT22;50669;50.982;11.022;2022-11-20T07:50:35;-3.30;99.90
28837;DHT22;50669;50.982;11.022;2022-11-20T07:53:05;-3.30;99.90
28837;DHT22;50669;50.982;11.022;2022-11-20T07:55:33;-3.30;99.90
28837;DHT22;50669;50.982;11.022;2022-11-20T07:57:59;-3.30;99.90
28837;DHT22;50669;50.982;11.022;2022-11-20T08:00:26;-3.30;99.90
28837;DHT22;50669;50.982;11.022;2022-11-20T08:02:52;-3.10;99.90
28837;DHT22;50669;50.982;11.022;2022-11-20T08:05:17;-3.00;99.90
28837;DHT22;50669;50.982;11.022;2022-11-20T08:07:43;-2.90;99.90
28837;DHT22;50669;50.982;11.022;2022-11-20T08:10:12;-2.90;99.90
28837;DHT22;50669;50.982;11.022;2022-11-20T08:12:48;-2.70;99.90
28837;DHT22;50669;50.982;11.022;2022-11-20T08:15:33;-2.60;99.90
28837;DHT22;50669;50.982;11.022;2022-11-20T08:18:03;-2.40;99.90
28837;DHT22;50669;50.982;11.022;2022-11-20T08:20:30;-2.30;99.90
28837;DHT22;50669;50.982;11.022;2022-11-20T08:23:06;-2.20;99.90
28837;DHT22;50669;50.982;11.022;2022-11-20T08:25:36;-2.10;99.90
28837;DHT22;50669;50.982;11.022;2022-11-20T08:28:07;-2.10;99.90
28837;DHT22;50669;50.982;11.022;2022-11-20T08:30:34;-2.10;99.90
28837;DHT22;50669;50.982;11.022;2022-11-20T08:33:05;-2.20;99.90
28837;DHT22;50669;50.982;11.022;2022-11-20T08:35:38;-2.10;99.90
28837;DHT22;50669;50.982;11.022;2022-11-20T08:38:06;-2.20;99.90
28837;DHT22;50669;50.982;11.022;2022-11-20T08:40:33;-2.20;99.90
28837;DHT22;50669;50.982;11.022;2022-11-20T08:42:58;-2.20;99.90
28837;DHT22;50669;50.982;11.022;2022-11-20T08:45:27;-2.30;99.90
28837;DHT22;50669;50.982;11.022;2022-11-20T08:47:52;-2.30;99.90
28837;DHT22;50669;50.982;11.022;2022-11-20T08:50:18;-2.40;99.90
28837;DHT22;50669;50.982;11.022;2022-11-20T08:52:44;-2.40;99.90
28837;DHT22;50669;50.982;11.022;2022-11-20T08:55:12;-2.20;99.90
28837;DHT22;50669;50.982;11.022;2022-11-20T08:57:38;-2.10;99.90
28837;DHT22;50669;50.982;11.022;2022-11-20T09:00:06;-2.10;99.90
28837;DHT22;50669;50.982;11.022;2022-11-20T09:02:33;-2.00;99.90
28837;DHT22;50669;50.982;11.022;2022-11-20T09:04:59;-1.80;99.90
28837;DHT22;50669;50.982;11.022;2022-11-20T09:07:25;-1.80;99.90
28837;DHT22;50669;50.982;11.022;2022-11-20T09:09:52;-1.90;99.90
28837;DHT22;50669;50.982;11.022;2022-11-20T09:12:18;-1.90;99.90
28837;DHT22;50669;50.982;11.022;2022-11-20T09:14:44;-1.90;99.90
28837;DHT22;50669;50.982;11.022;2022-11-20T09:17:12;-1.80;99.90
28837;DHT22;50669;50.982;11.022;2022-11-20T09:19:40;-1.70;99.90
28837;DHT22;50669;50.982;11.022;2022-11-20T09:22:06;-1.60;99.90
28837;DHT22;50669;50.982;11.022;2022-11-20T09:24:31;-1.60;99.90
28837;DHT22;50669;50.982;11.022;2022-11-20T09:27:00;-1.50;99.90
28837;DHT22;50669;50.982;11.022;2022-11-20T09:29:26;-1.40;99.90
28837;DHT22;50669;50.982;11.022;2022-11-20T09:31:51;-1.40;99.90
28837;DHT22;50669;50.982;11.022;2022-11-20T09:34:21;-1.40;99.90
28837;DHT22;50669;50.982;11.022;2022-11-20T09:36:49;-1.30;99.90
28837;DHT22;50669;50.982;11.022;2022-11-20T09:39:15;-1.20;99.90
28837;DHT22;50669;50.982;11.022;2022-11-20T09:55:16;-0.70;99.90
28837;DHT22;50669;50.982;11.022;2022-11-20T09:57:48;-0.60;99.90
28837;DHT22;50669;50.982;11.022;2022-11-20T10:00:16;-0.60;99.90
28837;DHT22;50669;50.982;11.022;2022-11-20T10:05:31;-0.50;99.90
28837;DHT22;50669;50.982;11.022;2022-11-20T10:18:47;-0.10;99.90
28837;DHT22;50669;50.982;11.022;2022-11-20T10:29:41;0.10;99.90
28837;DHT22;50669;50.982;11.022;2022-11-20T10:32:16;0.10;99.90
28837;DHT22;50669;50.982;11.022;2022-11-20T10:35:16;0.10;99.90
28837;DHT22;50669;50.982;11.022;2022-11-20T10:37:49;0.20;99.90
28837;DHT22;50669;50.982;11.022;2022-11-20T10:43:19;0.30;99.90
28837;DHT22;50669;50.982;11.022;2022-11-20T10:46:08;0.30;99.90
28837;DHT22;50669;50.982;11.022;2022-11-20T10:48:36;0.30;99.90
28837;DHT22;50669;50.982;11.022;2022-11-20T11:01:43;0.40;99.90
28837;DHT22;50669;50.982;11.022;2022-11-20T11:04:42;0.40;99.90
28837;DHT22;50669;50.982;11.022;2022-11-20T11:09:49;0.40;99.90
28837;DHT22;50669;50.982;11.022;2022-11-20T11:12:17;0.50;99.90
28837;DHT22;50669;50.982;11.022;2022-11-20T11:14:52;0.50;99.90
28837;DHT22;50669;50.982;11.022;2022-11-20T11:17:30;0.50;99.90
28837;DHT22;50669;50.982;11.022;2022-11-20T11:20:00;0.50;99.90
28837;DHT22;50669;50.982;11.022;2022-11-20T11:22:28;0.50;99.90
28837;DHT22;50669;50.982;11.022;2022-11-20T11:24:54;0.60;99.90
28837;DHT22;50669;50.982;11.022;2022-11-20T11:27:20;0.50;99.90
28837;DHT22;50669;50.982;11.022;2022-11-20T11:29:48;0.50;99.90
28837;DHT22;50669;50.982;11.022;2022-11-20T11:32:20;0.50;99.90
28837;DHT22;50669;50.982;11.022;2022-11-20T11:35:06;0.50;99.90
28837;DHT22;50669;50.982;11.022;2022-11-20T11:37:37;0.60;99.90
28837;DHT22;50669;50.982;11.022;2022-11-20T11:40:05;0.70;99.90
28837;DHT22;50669;50.982;11.022;2022-11-20T11:42:33;0.70;99.90
28837;DHT22;50669;50.982;11.022;2022-11-20T11:45:00;0.80;99.90
28837;DHT22;50669;50.982;11.022;2022-11-20T11:53:02;0.80;99.90
28837;DHT22;50669;50.982;11.022;2022-11-20T12:04:05;0.70;99.90
28837;DHT22;50669;50.982;11.022;2022-11-20T12:06:44;0.70;99.90
28837;DHT22;50669;50.982;11.022;2022-11-20T12:09:12;0.80;99.90
28837;DHT22;50669;50.982;11.022;2022-11-20T12:14:47;0.80;99.90
28837;DHT22;50669;50.982;11.022;2022-11-20T12:17:18;0.80;99.90
28837;DHT22;50669;50.982;11.022;2022-11-20T12:19:43;0.80;99.90
28837;DHT22;50669;50.982;11.022;2022-11-20T12:41:19;1.40;99.90
28837;DHT22;50669;50.982;11.022;2022-11-20T12:53:26;1.70;99.90
28837;DHT22;50669;50.982;11.022;2022-11-20T13:08:10;1.40;99.90
28837;DHT22;50669;50.982;11.022;2022-11-20T13:10:54;1.40;99.90
28837;DHT22;50669;50.982;11.022;2022-11-20T13:13:40;1.40;99.90
28837;DHT22;50669;50.982;11.022;2022-11-20T13:18:40;1.30;99.90
28837;DHT22;50669;50.982;11.022;2022-11-20T13:29:40;0.80;99.90
28837;DHT22;50669;50.982;11.022;2022-11-20T13:32:17;0.80;99.90
28837;DHT22;50669;50.982;11.022;2022-11-20T13:35:03;0.80;99.90
28837;DHT22;50669;50.982;11.022;2022-11-20T13:37:37;0.80;99.90
28837;DHT22;50669;50.982;11.022;2022-11-20T13:45:28;0.80;99.90
28837;DHT22;50669;50.982;11.022;2022-11-20T13:47:56;0.80;99.90
28837;DHT22;50669;50.982;11.022;2022-11-20T13:50:39;0.80;99.90
28837;DHT22;50669;50.982;11.022;2022-11-20T13:53:42;0.80;99.90
28837;DHT22;50669;50.982;11.022;2022-11-20T13:59:06;0.70;99.90
28837;DHT22;50669;50.982;11.022;2022-11-20T14:01:37;0.70;99.90
28837;DHT22;50669;50.982;11.022;2022-11-20T14:04:07;0.70;99.90
28837;DHT22;50669;50.982;11.022;2022-11-20T14:06:43;0.60;99.90
28837;DHT22;50669;50.982;11.022;2022-11-20T14:09:25;0.60;99.90
28837;DHT22;50669;50.982;11.022;2022-11-20T14:11:53;0.60;99.90
28837;DHT22;50669;50.982;11.022;2022-11-20T14:14:21;0.50;99.90
28837;DHT22;50669;50.982;11.022;2022-11-20T14:16:51;0.50;99.90
28837;DHT22;50669;50.982;11.022;2022-11-20T14:21:51;0.40;99.90
28837;DHT22;50669;50.982;11.022;2022-11-20T14:24:24;0.30;99.90
28837;DHT22;50669;50.982;11.022;2022-11-20T14:26:51;0.20;99.90
28837;DHT22;50669;50.982;11.022;2022-11-20T14:29:29;0.20;99.90
28837;DHT22;50669;50.982;11.022;2022-11-20T14:31:57;0.20;99.90
28837;DHT22;50669;50.982;11.022;2022-11-20T14:34:25;0.20;99.90
28837;DHT22;50669;50.982;11.022;2022-11-20T14:37:03;0.20;99.90
28837;DHT22;50669;50.982;11.022;2022-11-20T14:42:03;0.30;99.90
28837;DHT22;50669;50.982;11.022;2022-11-20T14:44:39;0.30;99.90
28837;DHT22;50669;50.982;11.022;2022-11-20T14:47:12;0.30;99.90
28837;DHT22;50669;50.982;11.022;2022-11-20T14:49:38;0.30;99.90
28837;DHT22;50669;50.982;11.022;2022-11-20T14:52:17;0.30;99.90
28837;DHT22;50669;50.982;11.022;2022-11-20T14:54:49;0.30;99.90
28837;DHT22;50669;50.982;11.022;2022-11-20T14:57:27;0.30;99.90
28837;DHT22;50669;50.982;11.022;2022-11-20T15:02:42;0.30;99.90
28837;DHT22;50669;50.982;11.022;2022-11-20T15:05:10;0.30;99.90
28837;DHT22;50669;50.982;11.022;2022-11-20T15:07:45;0.30;99.90
28837;DHT22;50669;50.982;11.022;2022-11-20T15:10:13;0.30;99.90
28837;DHT22;50669;50.982;11.022;2022-11-20T15:12:46;0.30;99.90
28837;DHT22;50669;50.982;11.022;2022-11-20T15:15:16;0.20;99.90
28837;DHT22;50669;50.982;11.022;2022-11-20T15:17:47;0.20;99.90
28837;DHT22;50669;50.982;11.022;2022-11-20T15:20:15;0.20;99.90
28837;DHT22;50669;50.982;11.022;2022-11-20T15:22:46;0.20;99.90
28837;DHT22;50669;50.982;11.022;2022-11-20T15:25:16;0.10;99.90
28837;DHT22;50669;50.982;11.022;2022-11-20T15:27:42;0.10;99.90
28837;DHT22;50669;50.982;11.022;2022-11-20T15:30:14;0.00;99.90
28837;DHT22;50669;50.982;11.022;2022-11-20T15:32:40;0.00;99.90
28837;DHT22;50669;50.982;11.022;2022-11-20T15:35:07;0.00;99.90
28837;DHT22;50669;50.982;11.022;2022-11-20T15:37:33;-0.10;99.90
28837;DHT22;50669;50.982;11.022;2022-11-20T15:39:58;0.00;99.90
28837;DHT22;50669;50.982;11.022;2022-11-20T15:42:24;-0.10;99.90
28837;DHT22;50669;50.982;11.022;2022-11-20T15:44:49;-0.20;99.90
28837;DHT22;50669;50.982;11.022;2022-11-20T15:47:24;-0.20;99.90
28837;DHT22;50669;50.982;11.022;2022-11-20T15:49:51;-0.20;99.90
28837;DHT22;50669;50.982;11.022;2022-11-20T15:52:18;-0.20;99.90
28837;DHT22;50669;50.982;11.022;2022-11-20T15:54:47;-0.20;99.90
28837;DHT22;50669;50.982;11.022;2022-11-20T15:57:15;-0.20;99.90
28837;DHT22;50669;50.982;11.022;2022-11-20T15:59:40;-0.20;99.90
28837;DHT22;50669;50.982;11.022;2022-11-20T16:02:14;-0.20;99.90
28837;DHT22;50669;50.982;11.022;2022-11-20T16:04:40;-0.10;99.90
28837;DHT22;50669;50.982;11.022;2022-11-20T16:07:06;-0.10;99.90
28837;DHT22;50669;50.982;11.022;2022-11-20T16:09:37;0.00;99.90
28837;DHT22;50669;50.982;11.022;2022-11-20T16:12:02;-0.10;99.90
28837;DHT22;50669;50.982;11.022;2022-11-20T16:14:28;-0.10;99.90
28837;DHT22;50669;50.982;11.022;2022-11-20T16:17:12;-0.10;99.90
28837;DHT22;50669;50.982;11.022;2022-11-20T16:19:38;-0.10;99.90
28837;DHT22;50669;50.982;11.022;2022-11-20T16:22:04;0.00;99.90
28837;DHT22;50669;50.982;11.022;2022-11-20T16:24:30;0.00;99.90
28837;DHT22;50669;50.982;11.022;2022-11-20T16:26:56;0.00;99.90
28837;DHT22;50669;50.982;11.022;2022-11-20T16:29:24;0.00;99.90
28837;DHT22;50669;50.982;11.022;2022-11-20T16:31:50;0.10;99.90
28837;DHT22;50669;50.982;11.022;2022-11-20T16:34:16;0.10;99.90
28837;DHT22;50669;50.982;11.022;2022-11-20T16:36:44;0.20;99.90
28837;DHT22;50669;50.982;11.022;2022-11-20T16:39:11;0.30;99.90
28837;DHT22;50669;50.982;11.022;2022-11-20T16:41:40;0.30;99.90
28837;DHT22;50669;50.982;11.022;2022-11-20T16:44:09;0.40;99.90
28837;DHT22;50669;50.982;11.022;2022-11-20T16:46:38;0.40;99.90
28837;DHT22;50669;50.982;11.022;2022-11-20T16:49:10;0.40;99.90
28837;DHT22;50669;50.982;11.022;2022-11-20T16:51:36;0.40;99.90
28837;DHT22;50669;50.982;11.022;2022-11-20T16:54:07;0.50;99.90
28837;DHT22;50669;50.982;11.022;2022-11-20T16:56:35;0.50;99.90
28837;DHT22;50669;50.982;11.022;2022-11-20T16:59:02;0.60;99.90
28837;DHT22;50669;50.982;11.022;2022-11-20T17:01:28;0.50;99.90
28837;DHT22;50669;50.982;11.022;2022-11-20T17:03:56;0.50;99.90
28837;DHT22;50669;50.982;11.022;2022-11-20T17:06:27;0.60;99.90
28837;DHT22;50669;50.982;11.022;2022-11-20T17:08:54;0.60;99.90
28837;DHT22;50669;50.982;11.022;2022-11-20T17:11:20;0.50;99.90
28837;DHT22;50669;50.982;11.022;2022-11-20T17:13:46;0.60;99.90
28837;DHT22;50669;50.982;11.022;2022-11-20T17:16:17;0.60;99.90
28837;DHT22;50669;50.982;11.022;2022-11-20T17:18:43;0.60;99.90
28837;DHT22;50669;50.982;11.022;2022-11-20T17:21:11;0.60;99.90
28837;DHT22;50669;50.982;11.022;2022-11-20T17:23:39;0.60;99.90
28837;DHT22;50669;50.982;11.022;2022-11-20T17:28:34;0.70;99.90
28837;DHT22;50669;50.982;11.022;2022-11-20T17:31:04;0.80;99.90
28837;DHT22;50669;50.982;11.022;2022-11-20T17:33:31;0.80;99.90
28837;DHT22;50669;50.982;11.022;2022-11-20T17:36:00;0.80;99.90
28837;DHT22;50669;50.982;11.022;2022-11-20T17:38:26;0.90;99.90
28837;DHT22;50669;50.982;11.022;2022-11-20T17:41:05;0.80;99.90
28837;DHT22;50669;50.982;11.022;2022-11-20T17:43:31;0.80;99.90
28837;DHT22;50669;50.982;11.022;2022-11-20T17:45:57;0.80;99.90
28837;DHT22;50669;50.982;11.022;2022-11-20T17:48:23;0.80;99.90
28837;DHT22;50669;50.982;11.022;2022-11-20T17:50:49;0.80;99.90
28837;DHT22;50669;50.982;11.022;2022-11-20T17:53:15;0.80;99.90
28837;DHT22;50669;50.982;11.022;2022-11-20T17:55:43;0.90;99.90